Friday, October 19, 2018, 7:35 AM GMT
Back to Local

CWEP, East Point, P. E. I

Location: , , Canada Lat: 46.45
Local Time: 7:35 AM GMT ( 7:35 GMT) Lon: -61.967
Time Zone: GMT Elev: 36 ft

Show me the last for .
Show Coded

Time T Td Feel RH Dir Speed Gust Alt SLP Vis Weather Sky Remarks
2018-10-19 06:00 38 24 23 58 290° 33 43 - 29.79 0 Peak wind: 43 mph (38 kts) from 290° at 02 min
2018-10-19 05:00 38 27 24 64 300° 35 45 - 29.77 0 Peak wind: 46 mph (40 kts) from 300° at 19 min
2018-10-19 04:00 38 26 24 62 290° 33 44 - 29.76 0 Peak wind: 46 mph (40 kts) from 300° at 16 min
2018-10-19 03:00 39 28 25 64 300° 33 43 - 29.73 0 Peak wind: 46 mph (40 kts) from 290° at 30 min
2018-10-19 02:00 39 30 25 69 290° 38 53 - 29.71 0 Peak wind: 52 mph (46 kts) from 290° at 56 min
2018-10-19 01:00 38 32 23 77 300° 39 47 - 29.69 0 Peak wind: 51 mph (45 kts) from 300° at 34 min
2018-10-19 00:00 39 32 25 74 300° 40 49 - 29.65 0 Peak wind: 49 mph (43 kts) from 310° at 11 min
2018-10-18 23:00 39 33 25 79 310° 38 49 - 29.62 0 Peak wind: 51 mph (45 kts) from 320° at 36 min
1-hr Precip Total: 0.01"
2018-10-18 22:00 40 37 26 86 290° 40 51 - 29.59 0 Peak wind: 54 mph (47 kts) from 310° at 37 min
1-hr Precip Total: 0.01"
2018-10-18 21:00 41 37 28 83 290° 36 46 - 29.54 0 Peak wind: 55 mph (48 kts) from 300° at 09 min
1-hr Precip Total: 0.01"
2018-10-18 20:00 42 36 29 77 290° 35 47 - 29.50 0 Peak wind: 47 mph (41 kts) from 290° at 59 min
1-hr Precip Total: 0.02"
2018-10-18 19:00 40 37 28 89 270° 24 35 - 29.50 0 Peak wind: 36 mph (32 kts) from 270° at 48 min
1-hr Precip Total: 0.07"
2018-10-18 18:00 38 35 26 89 260° 21 31 - 29.50 0 Peak wind: 31 mph (27 kts) from 270° at 02 min
1-hr Precip Total: 0.04"
2018-10-18 17:00 35 32 21 85 270° 25 38 - 29.51 0 Peak wind: 37 mph (33 kts) from 270° at 52 min
1-hr Precip Total: 0.01"
2018-10-18 16:00 38 31 25 76 270° 22 36 - 29.50 0 Peak wind: 36 mph (32 kts) from 260° at 30 min
2018-10-18 15:00 42 34 30 74 270° 24 35 - 29.50 0 Peak wind: 36 mph (32 kts) from 270° at 48 min
1-hr Precip Total: 0.01"
2018-10-18 14:00 40 35 28 83 270° 21 33 - 29.50 0 Peak wind: 33 mph (29 kts) from 290° at 53 min
1-hr Precip Total: 0.02"
2018-10-18 13:00 39 35 29 83 250° 15 23 - 29.50 0 Peak wind: 29 mph (26 kts) from 240° at 29 min
1-hr Precip Total: 0.12"
2018-10-18 12:00 40 38 28 91 270° 17 31 - 29.51 0 Peak wind: 31 mph (27 kts) from 280° at 57 min
1-hr Precip Total: 0.08"
2018-10-18 11:00 40 37 30 88 250° 17 24 - 29.49 0 Peak wind: 24 mph (21 kts) from 240° at 55 min
2018-10-18 10:00 41 38 34 88 250° 14 - - 29.48 0 Peak wind: 24 mph (21 kts) from 250° at 10 min
2018-10-18 09:00 43 39 34 88 250° 15 22 - 29.48 0 Peak wind: 21 mph (19 kts) from 250° at 02 min
2018-10-18 08:00 44 40 35 88 250° 15 21 - 29.47 0 Peak wind: 20 mph (18 kts) from 250° at 53 min

Support USWX by starting your Amazon purchase here.